sensor_id;sensor_type;location;lat;lon;timestamp;P1;durP1;ratioP1;P2;durP2;ratioP2
16440;SDS011;8330;-33.858;151.184;2022-12-19T00:00:43;13.15;;;3.38;;
16440;SDS011;8330;-33.858;151.184;2022-12-19T00:03:13;15.43;;;3.47;;
16440;SDS011;8330;-33.858;151.184;2022-12-19T00:05:44;16.13;;;3.28;;
16440;SDS011;8330;-33.858;151.184;2022-12-19T00:08:17;12.43;;;2.72;;
16440;SDS011;8330;-33.858;151.184;2022-12-19T00:10:54;14.07;;;3.10;;
16440;SDS011;8330;-33.858;151.184;2022-12-19T00:13:28;12.52;;;2.67;;
16440;SDS011;8330;-33.858;151.184;2022-12-19T00:16:01;13.38;;;2.90;;
16440;SDS011;8330;-33.858;151.184;2022-12-19T00:18:32;11.50;;;2.60;;
16440;SDS011;8330;-33.858;151.184;2022-12-19T00:21:03;12.93;;;2.70;;
16440;SDS011;8330;-33.858;151.184;2022-12-19T00:23:36;15.98;;;3.47;;
16440;SDS011;8330;-33.858;151.184;2022-12-19T00:26:08;15.85;;;3.10;;
16440;SDS011;8330;-33.858;151.184;2022-12-19T00:28:40;17.45;;;3.50;;
16440;SDS011;8330;-33.858;151.184;2022-12-19T00:31:12;16.02;;;3.10;;
16440;SDS011;8330;-33.858;151.184;2022-12-19T00:33:47;9.85;;;2.72;;
16440;SDS011;8330;-33.858;151.184;2022-12-19T00:36:18;13.57;;;2.78;;
16440;SDS011;8330;-33.858;151.184;2022-12-19T00:38:52;19.10;;;3.72;;
16440;SDS011;8330;-33.858;151.184;2022-12-19T00:41:24;14.23;;;3.30;;
16440;SDS011;8330;-33.858;151.184;2022-12-19T00:43:56;15.25;;;3.60;;
16440;SDS011;8330;-33.858;151.184;2022-12-19T00:46:29;12.25;;;3.25;;
16440;SDS011;8330;-33.858;151.184;2022-12-19T00:49:01;17.67;;;3.50;;
16440;SDS011;8330;-33.858;151.184;2022-12-19T00:51:33;14.00;;;2.90;;
16440;SDS011;8330;-33.858;151.184;2022-12-19T00:54:06;15.32;;;3.20;;
16440;SDS011;8330;-33.858;151.184;2022-12-19T00:56:38;12.10;;;3.10;;
16440;SDS011;8330;-33.858;151.184;2022-12-19T00:59:09;13.95;;;3.08;;
16440;SDS011;8330;-33.858;151.184;2022-12-19T01:01:40;20.65;;;3.70;;
16440;SDS011;8330;-33.858;151.184;2022-12-19T01:04:11;14.50;;;2.97;;
16440;SDS011;8330;-33.858;151.184;2022-12-19T01:06:42;15.50;;;2.72;;
16440;SDS011;8330;-33.858;151.184;2022-12-19T01:09:15;16.85;;;3.60;;
16440;SDS011;8330;-33.858;151.184;2022-12-19T01:11:46;17.85;;;3.00;;
16440;SDS011;8330;-33.858;151.184;2022-12-19T01:14:33;20.67;;;3.20;;
16440;SDS011;8330;-33.858;151.184;2022-12-19T01:17:06;19.08;;;3.38;;
16440;SDS011;8330;-33.858;151.184;2022-12-19T01:19:37;18.45;;;3.45;;
16440;SDS011;8330;-33.858;151.184;2022-12-19T01:22:08;16.77;;;3.13;;
16440;SDS011;8330;-33.858;151.184;2022-12-19T01:24:42;13.80;;;3.17;;
16440;SDS011;8330;-33.858;151.184;2022-12-19T01:27:16;17.58;;;3.35;;
16440;SDS011;8330;-33.858;151.184;2022-12-19T01:29:47;14.48;;;3.33;;
16440;SDS011;8330;-33.858;151.184;2022-12-19T01:32:17;15.18;;;3.42;;
16440;SDS011;8330;-33.858;151.184;2022-12-19T01:34:50;15.90;;;3.35;;
16440;SDS011;8330;-33.858;151.184;2022-12-19T01:37:21;14.85;;;3.08;;
16440;SDS011;8330;-33.858;151.184;2022-12-19T01:39:54;15.80;;;3.00;;
16440;SDS011;8330;-33.858;151.184;2022-12-19T01:42:25;15.77;;;3.33;;
16440;SDS011;8330;-33.858;151.184;2022-12-19T01:47:55;11.40;;;3.00;;
16440;SDS011;8330;-33.858;151.184;2022-12-19T01:50:32;14.27;;;2.85;;
16440;SDS011;8330;-33.858;151.184;2022-12-19T01:53:07;16.23;;;3.17;;
16440;SDS011;8330;-33.858;151.184;2022-12-19T01:55:41;13.48;;;3.05;;
16440;SDS011;8330;-33.858;151.184;2022-12-19T01:58:12;9.50;;;2.50;;
16440;SDS011;8330;-33.858;151.184;2022-12-19T02:00:44;14.80;;;3.40;;
16440;SDS011;8330;-33.858;151.184;2022-12-19T02:03:17;14.98;;;3.20;;
16440;SDS011;8330;-33.858;151.184;2022-12-19T02:05:50;11.73;;;2.78;;
16440;SDS011;8330;-33.858;151.184;2022-12-19T02:08:22;16.35;;;3.00;;
16440;SDS011;8330;-33.858;151.184;2022-12-19T02:10:56;12.65;;;3.45;;
16440;SDS011;8330;-33.858;151.184;2022-12-19T02:13:26;14.55;;;3.20;;
16440;SDS011;8330;-33.858;151.184;2022-12-19T02:15:59;13.93;;;3.47;;
16440;SDS011;8330;-33.858;151.184;2022-12-19T02:18:38;11.80;;;2.80;;
16440;SDS011;8330;-33.858;151.184;2022-12-19T02:21:22;14.25;;;3.25;;
16440;SDS011;8330;-33.858;151.184;2022-12-19T02:30:14;16.63;;;3.22;;
16440;SDS011;8330;-33.858;151.184;2022-12-19T02:32:52;16.30;;;3.15;;
16440;SDS011;8330;-33.858;151.184;2022-12-19T02:35:30;14.30;;;3.10;;
16440;SDS011;8330;-33.858;151.184;2022-12-19T02:38:10;13.75;;;3.30;;
16440;SDS011;8330;-33.858;151.184;2022-12-19T02:40:48;16.00;;;3.08;;
16440;SDS011;8330;-33.858;151.184;2022-12-19T02:43:25;12.40;;;2.67;;
16440;SDS011;8330;-33.858;151.184;2022-12-19T02:45:58;12.57;;;2.85;;
16440;SDS011;8330;-33.858;151.184;2022-12-19T02:48:34;12.65;;;2.75;;
16440;SDS011;8330;-33.858;151.184;2022-12-19T02:51:06;11.90;;;2.55;;
16440;SDS011;8330;-33.858;151.184;2022-12-19T02:53:36;13.63;;;2.97;;
16440;SDS011;8330;-33.858;151.184;2022-12-19T02:56:14;11.35;;;2.72;;
16440;SDS011;8330;-33.858;151.184;2022-12-19T02:58:58;10.90;;;2.28;;
16440;SDS011;8330;-33.858;151.184;2022-12-19T03:01:41;12.98;;;2.50;;
16440;SDS011;8330;-33.858;151.184;2022-12-19T03:04:23;11.90;;;3.03;;
16440;SDS011;8330;-33.858;151.184;2022-12-19T03:07:00;10.95;;;2.50;;
16440;SDS011;8330;-33.858;151.184;2022-12-19T03:09:39;12.98;;;3.13;;
16440;SDS011;8330;-33.858;151.184;2022-12-19T03:12:20;14.05;;;3.13;;
16440;SDS011;8330;-33.858;151.184;2022-12-19T03:14:56;14.70;;;3.13;;
16440;SDS011;8330;-33.858;151.184;2022-12-19T03:17:27;12.50;;;2.90;;
16440;SDS011;8330;-33.858;151.184;2022-12-19T03:20:06;12.13;;;2.72;;
16440;SDS011;8330;-33.858;151.184;2022-12-19T03:22:46;13.68;;;3.00;;
16440;SDS011;8330;-33.858;151.184;2022-12-19T03:25:17;10.25;;;2.65;;
16440;SDS011;8330;-33.858;151.184;2022-12-19T03:27:51;8.75;;;2.88;;
16440;SDS011;8330;-33.858;151.184;2022-12-19T03:30:23;13.90;;;2.65;;
16440;SDS011;8330;-33.858;151.184;2022-12-19T03:32:53;13.93;;;2.88;;
16440;SDS011;8330;-33.858;151.184;2022-12-19T03:35:27;12.50;;;2.17;;
16440;SDS011;8330;-33.858;151.184;2022-12-19T03:38:00;19.52;;;3.47;;
16440;SDS011;8330;-33.858;151.184;2022-12-19T03:40:32;18.70;;;3.42;;
16440;SDS011;8330;-33.858;151.184;2022-12-19T03:43:05;20.85;;;3.20;;
16440;SDS011;8330;-33.858;151.184;2022-12-19T03:45:42;12.95;;;2.85;;
16440;SDS011;8330;-33.858;151.184;2022-12-19T03:48:19;13.02;;;3.17;;
16440;SDS011;8330;-33.858;151.184;2022-12-19T03:50:57;11.35;;;3.00;;
16440;SDS011;8330;-33.858;151.184;2022-12-19T03:53:40;14.10;;;3.10;;
16440;SDS011;8330;-33.858;151.184;2022-12-19T03:56:21;16.25;;;3.25;;
16440;SDS011;8330;-33.858;151.184;2022-12-19T03:59:01;14.18;;;2.80;;
16440;SDS011;8330;-33.858;151.184;2022-12-19T04:01:35;13.98;;;3.05;;
16440;SDS011;8330;-33.858;151.184;2022-12-19T04:04:07;11.55;;;2.65;;
16440;SDS011;8330;-33.858;151.184;2022-12-19T04:06:42;12.00;;;2.60;;
16440;SDS011;8330;-33.858;151.184;2022-12-19T04:09:13;8.90;;;2.38;;
16440;SDS011;8330;-33.858;151.184;2022-12-19T04:11:46;11.98;;;3.33;;
16440;SDS011;8330;-33.858;151.184;2022-12-19T04:14:21;10.77;;;2.90;;
16440;SDS011;8330;-33.858;151.184;2022-12-19T04:16:55;12.77;;;2.50;;
16440;SDS011;8330;-33.858;151.184;2022-12-19T04:19:33;9.77;;;2.65;;
16440;SDS011;8330;-33.858;151.184;2022-12-19T04:22:14;9.00;;;2.38;;
16440;SDS011;8330;-33.858;151.184;2022-12-19T04:24:49;10.32;;;2.67;;
16440;SDS011;8330;-33.858;151.184;2022-12-19T04:27:21;14.65;;;3.03;;
16440;SDS011;8330;-33.858;151.184;2022-12-19T04:29:53;10.73;;;2.53;;
16440;SDS011;8330;-33.858;151.184;2022-12-19T04:32:28;9.90;;;2.80;;
16440;SDS011;8330;-33.858;151.184;2022-12-19T04:35:02;11.98;;;2.83;;
16440;SDS011;8330;-33.858;151.184;2022-12-19T04:37:35;11.45;;;2.45;;
16440;SDS011;8330;-33.858;151.184;2022-12-19T04:40:06;11.38;;;2.50;;
16440;SDS011;8330;-33.858;151.184;2022-12-19T04:42:38;13.52;;;2.67;;
16440;SDS011;8330;-33.858;151.184;2022-12-19T04:45:09;15.15;;;3.03;;
16440;SDS011;8330;-33.858;151.184;2022-12-19T04:47:40;12.55;;;2.70;;
16440;SDS011;8330;-33.858;151.184;2022-12-19T04:50:11;13.05;;;2.60;;
16440;SDS011;8330;-33.858;151.184;2022-12-19T04:52:44;10.82;;;2.42;;
16440;SDS011;8330;-33.858;151.184;2022-12-19T04:55:15;9.43;;;2.35;;
16440;SDS011;8330;-33.858;151.184;2022-12-19T04:57:45;8.77;;;2.20;;
16440;SDS011;8330;-33.858;151.184;2022-12-19T05:00:16;8.90;;;2.20;;
16440;SDS011;8330;-33.858;151.184;2022-12-19T05:02:47;9.90;;;2.35;;
16440;SDS011;8330;-33.858;151.184;2022-12-19T05:05:18;12.38;;;2.70;;
16440;SDS011;8330;-33.858;151.184;2022-12-19T05:07:50;8.75;;;2.72;;
16440;SDS011;8330;-33.858;151.184;2022-12-19T05:10:22;9.25;;;2.35;;
16440;SDS011;8330;-33.858;151.184;2022-12-19T05:12:53;9.05;;;2.33;;
16440;SDS011;8330;-33.858;151.184;2022-12-19T05:15:24;9.55;;;2.30;;
16440;SDS011;8330;-33.858;151.184;2022-12-19T05:17:55;12.32;;;2.70;;
16440;SDS011;8330;-33.858;151.184;2022-12-19T05:20:26;8.45;;;2.30;;
16440;SDS011;8330;-33.858;151.184;2022-12-19T05:23:00;10.43;;;2.50;;
16440;SDS011;8330;-33.858;151.184;2022-12-19T05:25:31;9.30;;;2.50;;
16440;SDS011;8330;-33.858;151.184;2022-12-19T05:28:03;12.02;;;2.90;;
16440;SDS011;8330;-33.858;151.184;2022-12-19T05:30:34;7.15;;;2.30;;
16440;SDS011;8330;-33.858;151.184;2022-12-19T05:33:05;11.43;;;2.92;;
16440;SDS011;8330;-33.858;151.184;2022-12-19T05:35:35;9.10;;;2.47;;
16440;SDS011;8330;-33.858;151.184;2022-12-19T05:38:09;10.30;;;2.47;;
16440;SDS011;8330;-33.858;151.184;2022-12-19T05:40:40;11.65;;;2.60;;
16440;SDS011;8330;-33.858;151.184;2022-12-19T05:43:11;13.18;;;3.15;;
16440;SDS011;8330;-33.858;151.184;2022-12-19T05:45:42;11.07;;;2.53;;
16440;SDS011;8330;-33.858;151.184;2022-12-19T05:48:13;14.27;;;3.20;;
16440;SDS011;8330;-33.858;151.184;2022-12-19T05:50:46;13.65;;;3.28;;
16440;SDS011;8330;-33.858;151.184;2022-12-19T05:53:19;16.48;;;3.20;;
16440;SDS011;8330;-33.858;151.184;2022-12-19T05:55:50;17.90;;;3.20;;
16440;SDS011;8330;-33.858;151.184;2022-12-19T05:58:21;13.60;;;3.60;;
16440;SDS011;8330;-33.858;151.184;2022-12-19T06:00:51;17.02;;;2.85;;
16440;SDS011;8330;-33.858;151.184;2022-12-19T06:03:22;10.98;;;2.80;;
16440;SDS011;8330;-33.858;151.184;2022-12-19T06:05:53;11.40;;;2.45;;
16440;SDS011;8330;-33.858;151.184;2022-12-19T06:08:26;14.60;;;2.80;;
16440;SDS011;8330;-33.858;151.184;2022-12-19T06:10:57;16.88;;;3.20;;
16440;SDS011;8330;-33.858;151.184;2022-12-19T06:13:28;19.80;;;2.92;;
16440;SDS011;8330;-33.858;151.184;2022-12-19T06:16:00;15.95;;;3.60;;
16440;SDS011;8330;-33.858;151.184;2022-12-19T06:18:31;18.23;;;3.03;;
16440;SDS011;8330;-33.858;151.184;2022-12-19T06:21:02;15.82;;;3.50;;
16440;SDS011;8330;-33.858;151.184;2022-12-19T06:23:36;15.82;;;3.10;;
16440;SDS011;8330;-33.858;151.184;2022-12-19T06:26:09;13.15;;;2.42;;
16440;SDS011;8330;-33.858;151.184;2022-12-19T06:28:42;9.13;;;2.20;;
16440;SDS011;8330;-33.858;151.184;2022-12-19T06:31:13;14.23;;;2.95;;
16440;SDS011;8330;-33.858;151.184;2022-12-19T06:33:46;15.23;;;3.10;;
16440;SDS011;8330;-33.858;151.184;2022-12-19T06:36:17;14.00;;;3.33;;
16440;SDS011;8330;-33.858;151.184;2022-12-19T06:38:52;18.05;;;3.30;;
16440;SDS011;8330;-33.858;151.184;2022-12-19T06:41:25;13.85;;;3.05;;
16440;SDS011;8330;-33.858;151.184;2022-12-19T06:44:20;15.98;;;2.88;;
16440;SDS011;8330;-33.858;151.184;2022-12-19T06:46:53;12.27;;;2.38;;
16440;SDS011;8330;-33.858;151.184;2022-12-19T06:49:24;13.18;;;3.00;;
16440;SDS011;8330;-33.858;151.184;2022-12-19T06:51:55;13.52;;;2.90;;
16440;SDS011;8330;-33.858;151.184;2022-12-19T06:54:27;14.20;;;3.10;;
16440;SDS011;8330;-33.858;151.184;2022-12-19T06:56:59;15.05;;;3.17;;
16440;SDS011;8330;-33.858;151.184;2022-12-19T06:59:30;12.25;;;3.45;;
16440;SDS011;8330;-33.858;151.184;2022-12-19T07:02:02;9.00;;;2.35;;
16440;SDS011;8330;-33.858;151.184;2022-12-19T07:04:42;6.63;;;2.15;;
16440;SDS011;8330;-33.858;151.184;2022-12-19T07:07:18;13.63;;;2.70;;
16440;SDS011;8330;-33.858;151.184;2022-12-19T07:09:51;7.53;;;2.17;;
16440;SDS011;8330;-33.858;151.184;2022-12-19T07:12:22;11.80;;;2.70;;
16440;SDS011;8330;-33.858;151.184;2022-12-19T07:14:53;12.40;;;2.75;;
16440;SDS011;8330;-33.858;151.184;2022-12-19T07:17:24;10.48;;;2.60;;
16440;SDS011;8330;-33.858;151.184;2022-12-19T07:19:57;8.57;;;1.90;;
16440;SDS011;8330;-33.858;151.184;2022-12-19T07:22:28;8.73;;;2.15;;
16440;SDS011;8330;-33.858;151.184;2022-12-19T07:25:07;13.70;;;2.67;;
16440;SDS011;8330;-33.858;151.184;2022-12-19T07:27:38;11.85;;;3.35;;
16440;SDS011;8330;-33.858;151.184;2022-12-19T07:30:10;16.27;;;4.88;;
16440;SDS011;8330;-33.858;151.184;2022-12-19T07:32:41;12.20;;;2.78;;
16440;SDS011;8330;-33.858;151.184;2022-12-19T07:35:14;13.25;;;2.78;;
16440;SDS011;8330;-33.858;151.184;2022-12-19T07:37:45;11.25;;;3.95;;
16440;SDS011;8330;-33.858;151.184;2022-12-19T07:40:17;9.35;;;2.70;;
16440;SDS011;8330;-33.858;151.184;2022-12-19T07:42:48;13.52;;;3.08;;
16440;SDS011;8330;-33.858;151.184;2022-12-19T07:45:19;10.02;;;2.50;;
16440;SDS011;8330;-33.858;151.184;2022-12-19T07:47:50;12.30;;;2.92;;
16440;SDS011;8330;-33.858;151.184;2022-12-19T07:50:21;7.70;;;2.15;;
16440;SDS011;8330;-33.858;151.184;2022-12-19T07:52:52;11.30;;;2.65;;
16440;SDS011;8330;-33.858;151.184;2022-12-19T07:55:25;12.45;;;2.75;;
16440;SDS011;8330;-33.858;151.184;2022-12-19T07:57:56;9.82;;;2.45;;
16440;SDS011;8330;-33.858;151.184;2022-12-19T08:00:29;13.98;;;3.30;;
16440;SDS011;8330;-33.858;151.184;2022-12-19T08:02:59;11.05;;;2.47;;
16440;SDS011;8330;-33.858;151.184;2022-12-19T08:05:30;8.88;;;2.60;;
16440;SDS011;8330;-33.858;151.184;2022-12-19T08:08:01;11.15;;;2.25;;
16440;SDS011;8330;-33.858;151.184;2022-12-19T08:10:35;9.52;;;2.45;;
16440;SDS011;8330;-33.858;151.184;2022-12-19T08:13:06;13.25;;;2.70;;
16440;SDS011;8330;-33.858;151.184;2022-12-19T08:15:37;10.43;;;2.30;;
16440;SDS011;8330;-33.858;151.184;2022-12-19T08:18:08;9.75;;;2.20;;
16440;SDS011;8330;-33.858;151.184;2022-12-19T08:20:42;10.80;;;2.83;;
16440;SDS011;8330;-33.858;151.184;2022-12-19T08:23:15;8.00;;;2.30;;
16440;SDS011;8330;-33.858;151.184;2022-12-19T08:25:57;8.55;;;2.33;;
16440;SDS011;8330;-33.858;151.184;2022-12-19T08:28:29;7.55;;;2.15;;
16440;SDS011;8330;-33.858;151.184;2022-12-19T08:31:04;11.90;;;2.47;;
16440;SDS011;8330;-33.858;151.184;2022-12-19T08:33:36;8.73;;;2.40;;
16440;SDS011;8330;-33.858;151.184;2022-12-19T08:36:07;6.57;;;2.00;;
16440;SDS011;8330;-33.858;151.184;2022-12-19T08:38:40;11.60;;;2.38;;
16440;SDS011;8330;-33.858;151.184;2022-12-19T08:41:12;10.00;;;2.38;;
16440;SDS011;8330;-33.858;151.184;2022-12-19T08:43:47;7.20;;;1.80;;
16440;SDS011;8330;-33.858;151.184;2022-12-19T08:46:19;11.30;;;2.00;;
16440;SDS011;8330;-33.858;151.184;2022-12-19T08:48:50;7.43;;;2.17;;
16440;SDS011;8330;-33.858;151.184;2022-12-19T08:51:21;11.13;;;2.53;;
16440;SDS011;8330;-33.858;151.184;2022-12-19T08:53:52;9.70;;;2.83;;
16440;SDS011;8330;-33.858;151.184;2022-12-19T08:56:25;10.82;;;2.42;;
16440;SDS011;8330;-33.858;151.184;2022-12-19T08:58:56;8.63;;;2.28;;
16440;SDS011;8330;-33.858;151.184;2022-12-19T09:01:26;8.60;;;2.22;;
16440;SDS011;8330;-33.858;151.184;2022-12-19T09:03:58;8.05;;;2.60;;
16440;SDS011;8330;-33.858;151.184;2022-12-19T09:06:29;11.70;;;2.28;;
16440;SDS011;8330;-33.858;151.184;2022-12-19T09:09:01;6.72;;;2.17;;
16440;SDS011;8330;-33.858;151.184;2022-12-19T09:11:33;13.95;;;2.63;;
16440;SDS011;8330;-33.858;151.184;2022-12-19T09:14:04;11.30;;;2.67;;
16440;SDS011;8330;-33.858;151.184;2022-12-19T09:16:35;9.52;;;2.63;;
16440;SDS011;8330;-33.858;151.184;2022-12-19T09:19:06;9.98;;;2.67;;
16440;SDS011;8330;-33.858;151.184;2022-12-19T09:21:40;8.50;;;2.25;;
16440;SDS011;8330;-33.858;151.184;2022-12-19T09:24:11;10.98;;;2.80;;
16440;SDS011;8330;-33.858;151.184;2022-12-19T09:26:46;10.07;;;2.20;;
16440;SDS011;8330;-33.858;151.184;2022-12-19T09:29:17;11.55;;;2.70;;
16440;SDS011;8330;-33.858;151.184;2022-12-19T09:31:49;12.52;;;2.80;;
16440;SDS011;8330;-33.858;151.184;2022-12-19T09:34:23;12.40;;;2.55;;
16440;SDS011;8330;-33.858;151.184;2022-12-19T09:36:55;10.10;;;2.33;;
16440;SDS011;8330;-33.858;151.184;2022-12-19T09:39:26;13.45;;;2.88;;
16440;SDS011;8330;-33.858;151.184;2022-12-19T09:45:14;13.93;;;2.42;;
16440;SDS011;8330;-33.858;151.184;2022-12-19T09:47:57;11.60;;;2.72;;
16440;SDS011;8330;-33.858;151.184;2022-12-19T09:50:32;8.90;;;2.50;;
16440;SDS011;8330;-33.858;151.184;2022-12-19T09:53:14;9.27;;;2.42;;
16440;SDS011;8330;-33.858;151.184;2022-12-19T09:55:51;12.10;;;2.55;;
16440;SDS011;8330;-33.858;151.184;2022-12-19T09:58:30;12.93;;;3.03;;
16440;SDS011;8330;-33.858;151.184;2022-12-19T10:01:07;8.25;;;2.03;;
16440;SDS011;8330;-33.858;151.184;2022-12-19T10:03:46;8.52;;;2.60;;
16440;SDS011;8330;-33.858;151.184;2022-12-19T10:06:27;10.68;;;2.03;;
16440;SDS011;8330;-33.858;151.184;2022-12-19T10:08:58;9.75;;;2.22;;
16440;SDS011;8330;-33.858;151.184;2022-12-19T10:11:40;6.40;;;1.77;;
16440;SDS011;8330;-33.858;151.184;2022-12-19T10:14:24;7.43;;;1.83;;
16440;SDS011;8330;-33.858;151.184;2022-12-19T10:17:14;8.93;;;2.28;;
16440;SDS011;8330;-33.858;151.184;2022-12-19T10:19:58;7.47;;;1.90;;
16440;SDS011;8330;-33.858;151.184;2022-12-19T10:22:55;8.00;;;2.13;;
16440;SDS011;8330;-33.858;151.184;2022-12-19T10:25:36;12.15;;;2.28;;
16440;SDS011;8330;-33.858;151.184;2022-12-19T10:28:23;11.35;;;2.00;;
16440;SDS011;8330;-33.858;151.184;2022-12-19T10:31:07;10.52;;;2.55;;
16440;SDS011;8330;-33.858;151.184;2022-12-19T10:33:48;11.20;;;2.03;;
16440;SDS011;8330;-33.858;151.184;2022-12-19T10:36:24;9.25;;;2.03;;
16440;SDS011;8330;-33.858;151.184;2022-12-19T10:38:57;13.57;;;2.67;;
16440;SDS011;8330;-33.858;151.184;2022-12-19T10:41:31;9.40;;;2.22;;
16440;SDS011;8330;-33.858;151.184;2022-12-19T10:44:06;12.95;;;2.20;;
16440;SDS011;8330;-33.858;151.184;2022-12-19T10:46:38;12.25;;;2.30;;
16440;SDS011;8330;-33.858;151.184;2022-12-19T10:49:15;9.30;;;2.15;;
16440;SDS011;8330;-33.858;151.184;2022-12-19T10:51:56;9.48;;;2.33;;
16440;SDS011;8330;-33.858;151.184;2022-12-19T10:54:37;6.97;;;2.03;;
16440;SDS011;8330;-33.858;151.184;2022-12-19T10:57:22;8.07;;;1.70;;
16440;SDS011;8330;-33.858;151.184;2022-12-19T10:59:57;11.93;;;2.60;;
16440;SDS011;8330;-33.858;151.184;2022-12-19T11:02:33;7.53;;;1.65;;
16440;SDS011;8330;-33.858;151.184;2022-12-19T11:05:21;8.98;;;1.92;;
16440;SDS011;8330;-33.858;151.184;2022-12-19T11:08:01;4.88;;;1.55;;
16440;SDS011;8330;-33.858;151.184;2022-12-19T11:10:40;7.55;;;2.10;;
16440;SDS011;8330;-33.858;151.184;2022-12-19T11:13:22;15.68;;;2.85;;
16440;SDS011;8330;-33.858;151.184;2022-12-19T11:15:54;11.43;;;2.33;;
16440;SDS011;8330;-33.858;151.184;2022-12-19T11:18:32;9.60;;;1.83;;
16440;SDS011;8330;-33.858;151.184;2022-12-19T11:21:12;10.68;;;1.90;;
16440;SDS011;8330;-33.858;151.184;2022-12-19T11:23:47;7.18;;;1.98;;
16440;SDS011;8330;-33.858;151.184;2022-12-19T11:26:27;7.47;;;1.65;;
16440;SDS011;8330;-33.858;151.184;2022-12-19T11:29:15;9.07;;;2.13;;
16440;SDS011;8330;-33.858;151.184;2022-12-19T11:31:53;6.40;;;1.60;;
16440;SDS011;8330;-33.858;151.184;2022-12-19T11:34:29;8.73;;;2.03;;
16440;SDS011;8330;-33.858;151.184;2022-12-19T11:37:07;9.15;;;1.95;;
16440;SDS011;8330;-33.858;151.184;2022-12-19T11:39:47;5.05;;;1.58;;
16440;SDS011;8330;-33.858;151.184;2022-12-19T11:42:22;10.02;;;1.80;;
16440;SDS011;8330;-33.858;151.184;2022-12-19T11:44:59;10.93;;;1.88;;
16440;SDS011;8330;-33.858;151.184;2022-12-19T11:47:35;7.97;;;1.83;;
16440;SDS011;8330;-33.858;151.184;2022-12-19T11:50:21;6.18;;;1.90;;
16440;SDS011;8330;-33.858;151.184;2022-12-19T11:53:00;7.30;;;2.20;;
16440;SDS011;8330;-33.858;151.184;2022-12-19T11:55:39;8.55;;;1.90;;
16440;SDS011;8330;-33.858;151.184;2022-12-19T11:58:13;10.65;;;2.05;;
16440;SDS011;8330;-33.858;151.184;2022-12-19T12:00:47;7.82;;;1.77;;
16440;SDS011;8330;-33.858;151.184;2022-12-19T12:03:39;8.40;;;1.73;;
16440;SDS011;8330;-33.858;151.184;2022-12-19T12:06:31;7.50;;;1.92;;
16440;SDS011;8330;-33.858;151.184;2022-12-19T12:09:14;6.38;;;2.00;;
16440;SDS011;8330;-33.858;151.184;2022-12-19T12:12:04;6.95;;;1.63;;
16440;SDS011;8330;-33.858;151.184;2022-12-19T12:14:51;6.38;;;1.70;;
16440;SDS011;8330;-33.858;151.184;2022-12-19T12:20:28;9.90;;;1.65;;
16440;SDS011;8330;-33.858;151.184;2022-12-19T12:23:13;7.72;;;1.73;;
16440;SDS011;8330;-33.858;151.184;2022-12-19T12:25:58;6.65;;;1.80;;
16440;SDS011;8330;-33.858;151.184;2022-12-19T12:31:51;6.25;;;1.48;;
16440;SDS011;8330;-33.858;151.184;2022-12-19T12:34:37;9.10;;;2.20;;
16440;SDS011;8330;-33.858;151.184;2022-12-19T12:37:20;8.65;;;1.80;;
16440;SDS011;8330;-33.858;151.184;2022-12-19T12:43:02;8.63;;;1.83;;
16440;SDS011;8330;-33.858;151.184;2022-12-19T12:45:41;8.95;;;1.95;;
16440;SDS011;8330;-33.858;151.184;2022-12-19T12:48:15;10.70;;;2.10;;
16440;SDS011;8330;-33.858;151.184;2022-12-19T12:50:49;11.52;;;1.73;;
16440;SDS011;8330;-33.858;151.184;2022-12-19T12:53:20;7.25;;;1.70;;
16440;SDS011;8330;-33.858;151.184;2022-12-19T12:55:54;10.35;;;1.95;;
16440;SDS011;8330;-33.858;151.184;2022-12-19T13:01:48;9.48;;;2.28;;
16440;SDS011;8330;-33.858;151.184;2022-12-19T13:04:25;7.75;;;1.63;;
16440;SDS011;8330;-33.858;151.184;2022-12-19T13:09:53;10.13;;;2.38;;
16440;SDS011;8330;-33.858;151.184;2022-12-19T13:12:51;6.03;;;1.63;;
16440;SDS011;8330;-33.858;151.184;2022-12-19T13:15:33;8.88;;;2.25;;
16440;SDS011;8330;-33.858;151.184;2022-12-19T13:21:03;7.35;;;2.00;;
16440;SDS011;8330;-33.858;151.184;2022-12-19T13:23:44;10.63;;;1.90;;
16440;SDS011;8330;-33.858;151.184;2022-12-19T13:26:20;8.20;;;2.15;;
16440;SDS011;8330;-33.858;151.184;2022-12-19T13:29:27;6.35;;;2.13;;
16440;SDS011;8330;-33.858;151.184;2022-12-19T13:32:48;7.97;;;1.58;;
16440;SDS011;8330;-33.858;151.184;2022-12-19T13:35:35;7.90;;;1.70;;
16440;SDS011;8330;-33.858;151.184;2022-12-19T13:38:17;9.82;;;2.20;;
16440;SDS011;8330;-33.858;151.184;2022-12-19T13:44:08;9.70;;;2.22;;
16440;SDS011;8330;-33.858;151.184;2022-12-19T13:46:40;6.97;;;1.80;;
16440;SDS011;8330;-33.858;151.184;2022-12-19T13:49:16;8.68;;;1.95;;
16440;SDS011;8330;-33.858;151.184;2022-12-19T13:51:54;14.00;;;2.33;;
16440;SDS011;8330;-33.858;151.184;2022-12-19T13:54:29;8.27;;;1.75;;
16440;SDS011;8330;-33.858;151.184;2022-12-19T13:57:02;7.20;;;1.67;;
16440;SDS011;8330;-33.858;151.184;2022-12-19T13:59:48;10.20;;;2.47;;
16440;SDS011;8330;-33.858;151.184;2022-12-19T14:02:23;8.63;;;2.20;;
16440;SDS011;8330;-33.858;151.184;2022-12-19T14:04:59;8.40;;;2.33;;
16440;SDS011;8330;-33.858;151.184;2022-12-19T14:07:34;8.32;;;1.83;;
16440;SDS011;8330;-33.858;151.184;2022-12-19T14:10:13;7.28;;;1.85;;
16440;SDS011;8330;-33.858;151.184;2022-12-19T14:12:46;11.32;;;2.72;;
16440;SDS011;8330;-33.858;151.184;2022-12-19T14:15:34;11.23;;;2.75;;
16440;SDS011;8330;-33.858;151.184;2022-12-19T14:18:12;6.85;;;2.13;;
16440;SDS011;8330;-33.858;151.184;2022-12-19T14:21:05;8.10;;;2.22;;
16440;SDS011;8330;-33.858;151.184;2022-12-19T14:23:44;10.85;;;2.22;;
16440;SDS011;8330;-33.858;151.184;2022-12-19T14:26:18;12.07;;;2.30;;
16440;SDS011;8330;-33.858;151.184;2022-12-19T14:28:54;9.13;;;2.03;;
16440;SDS011;8330;-33.858;151.184;2022-12-19T14:31:28;7.15;;;2.13;;
16440;SDS011;8330;-33.858;151.184;2022-12-19T14:34:00;6.30;;;1.95;;
16440;SDS011;8330;-33.858;151.184;2022-12-19T14:36:33;11.90;;;2.40;;
16440;SDS011;8330;-33.858;151.184;2022-12-19T14:39:12;10.45;;;2.33;;
16440;SDS011;8330;-33.858;151.184;2022-12-19T14:41:46;7.90;;;1.77;;
16440;SDS011;8330;-33.858;151.184;2022-12-19T14:44:44;5.95;;;1.98;;
16440;SDS011;8330;-33.858;151.184;2022-12-19T14:47:21;8.23;;;1.98;;
16440;SDS011;8330;-33.858;151.184;2022-12-19T14:49:52;10.77;;;2.10;;
16440;SDS011;8330;-33.858;151.184;2022-12-19T14:52:38;14.70;;;2.35;;
16440;SDS011;8330;-33.858;151.184;2022-12-19T14:55:23;11.27;;;2.60;;
16440;SDS011;8330;-33.858;151.184;2022-12-19T14:57:58;12.38;;;2.70;;
16440;SDS011;8330;-33.858;151.184;2022-12-19T15:00:41;11.30;;;2.15;;
16440;SDS011;8330;-33.858;151.184;2022-12-19T15:03:15;11.52;;;2.53;;
16440;SDS011;8330;-33.858;151.184;2022-12-19T15:05:49;10.27;;;2.17;;
16440;SDS011;8330;-33.858;151.184;2022-12-19T15:08:26;11.30;;;2.10;;
16440;SDS011;8330;-33.858;151.184;2022-12-19T15:11:00;8.40;;;1.85;;
16440;SDS011;8330;-33.858;151.184;2022-12-19T15:13:52;7.20;;;1.88;;
16440;SDS011;8330;-33.858;151.184;2022-12-19T15:16:24;9.63;;;2.22;;
16440;SDS011;8330;-33.858;151.184;2022-12-19T15:18:56;7.30;;;1.77;;
16440;SDS011;8330;-33.858;151.184;2022-12-19T15:21:29;8.80;;;2.40;;
16440;SDS011;8330;-33.858;151.184;2022-12-19T15:24:02;10.50;;;2.00;;
16440;SDS011;8330;-33.858;151.184;2022-12-19T15:26:33;12.45;;;2.28;;
16440;SDS011;8330;-33.858;151.184;2022-12-19T15:29:13;11.90;;;2.67;;
16440;SDS011;8330;-33.858;151.184;2022-12-19T15:31:44;12.32;;;2.40;;
16440;SDS011;8330;-33.858;151.184;2022-12-19T15:34:19;12.40;;;2.42;;